Terminal Aerodrome Forecast
Issued by NWS Tampa Bay Area, FL

Home | Current Version | Previous Version | Text Only | Print | Product List | Glossary On
Versions: 1 2 3 4 5 6 7 8 9 10 11 12 13 14 15 16 17 18 19 20 21 22 23 24 25
000
FTUS42 KTBW 181737
TAFTPA
TAF
KTPA 181737Z 1818/1918 26010KT P6SM FEW030 SCT060 BKN250
     FM190100 18004KT P6SM FEW030 BKN200
     FM191300 19007KT P6SM SCT040 BKN200
     FM191600 20011KT P6SM SCT050 BKN250=

USA.gov is the U.S. government's official web portal to all federal, state and local government web resources and services.